Time;durP1;ratioP1;P1;durP2;ratioP2;P2;SDS_P1;SDS_P2;PMS_P1;PMS_P2;Temp;Humidity;BMP_temperature;BMP_pressure;BME280_temperature;BME280_humidity;BME280_pressure;Samples;Min_cycle;Max_cycle;Signal;HPM_P1;HPM_P2
2022/11/08 00:02:22;;;;;;;;;;;3.10;99.90;;;;;;5056405;28;19936;-72
2022/11/08 00:04:48;;;;;;;;;;;3.10;99.90;;;;;;5056424;28;20357;-72
2022/11/08 00:15:26;;;;;;;;;;;3.00;99.90;;;;;;5056497;28;20008;-72
2022/11/08 00:17:52;;;;;;;;;;;3.00;99.90;;;;;;5056147;28;19952;-72
2022/11/08 00:20:17;;;;;;;;;;;3.00;99.90;;;;;;5056055;28;20310;-72
2022/11/08 00:22:43;;;;;;;;;;;3.00;99.90;;;;;;5055675;28;20369;-72
2022/11/08 00:25:09;;;;;;;;;;;3.00;99.90;;;;;;5055753;28;20263;-72
2022/11/08 00:27:35;;;;;;;;;;;3.00;99.90;;;;;;5055737;28;20351;-72
2022/11/08 00:30:00;;;;;;;;;;;3.00;99.90;;;;;;5055632;28;19912;-72
2022/11/08 00:32:26;;;;;;;;;;;2.90;99.90;;;;;;5055488;28;19913;-72
2022/11/08 00:34:52;;;;;;;;;;;2.80;99.90;;;;;;5055603;28;19915;-71
2022/11/08 00:37:19;;;;;;;;;;;2.80;99.90;;;;;;5055501;28;19912;-72
2022/11/08 00:39:44;;;;;;;;;;;2.80;99.90;;;;;;5055436;28;19909;-72
2022/11/08 00:42:10;;;;;;;;;;;2.70;99.90;;;;;;5055385;28;20008;-71
2022/11/08 00:44:36;;;;;;;;;;;2.70;99.90;;;;;;5055301;28;19983;-71
2022/11/08 00:47:01;;;;;;;;;;;2.60;99.90;;;;;;5055286;28;19956;-71
2022/11/08 00:49:27;;;;;;;;;;;2.60;99.90;;;;;;5055538;28;19920;-71
2022/11/08 00:51:52;;;;;;;;;;;2.60;99.90;;;;;;5055199;28;19913;-72
2022/11/08 00:54:19;;;;;;;;;;;2.60;99.90;;;;;;5055616;28;19913;-71
2022/11/08 00:56:46;;;;;;;;;;;2.60;99.90;;;;;;5055139;28;19916;-71
2022/11/08 00:59:12;;;;;;;;;;;2.60;99.90;;;;;;5055400;28;19961;-71
2022/11/08 01:01:38;;;;;;;;;;;2.60;99.90;;;;;;5055140;28;19916;-71
2022/11/08 01:04:04;;;;;;;;;;;2.60;99.90;;;;;;5055008;28;19909;-71
2022/11/08 01:06:30;;;;;;;;;;;2.60;99.90;;;;;;5055166;28;19919;-71
2022/11/08 01:08:55;;;;;;;;;;;2.60;99.90;;;;;;5054873;28;19916;-71
2022/11/08 01:11:22;;;;;;;;;;;2.60;99.90;;;;;;5054464;28;19913;-72
2022/11/08 01:13:48;;;;;;;;;;;2.50;99.90;;;;;;5054682;28;20007;-71
2022/11/08 01:16:24;;;;;;;;;;;2.40;99.90;;;;;;5054648;28;19913;-71
2022/11/08 01:18:51;;;;;;;;;;;2.40;99.90;;;;;;5054695;28;19966;-71
2022/11/08 01:21:17;;;;;;;;;;;2.40;99.90;;;;;;5054525;28;19913;-70
2022/11/08 01:23:44;;;;;;;;;;;2.40;99.90;;;;;;5036606;28;19909;-71
2022/11/08 01:26:19;;;;;;;;;;;2.40;99.90;;;;;;5054519;28;19963;-71
2022/11/08 01:28:45;;;;;;;;;;;2.40;99.90;;;;;;5054507;28;19908;-71
2022/11/08 01:31:12;;;;;;;;;;;2.30;99.90;;;;;;5054763;28;20042;-71
2022/11/08 01:33:38;;;;;;;;;;;2.30;99.90;;;;;;5054333;28;19970;-71
2022/11/08 01:36:10;;;;;;;;;;;2.30;99.90;;;;;;5054260;28;20420;-71
2022/11/08 01:38:36;;;;;;;;;;;2.20;99.90;;;;;;5054275;28;19909;-71
2022/11/08 01:41:01;;;;;;;;;;;2.20;99.90;;;;;;5054262;28;19909;-71
2022/11/08 01:43:46;;;;;;;;;;;2.20;99.90;;;;;;5054129;28;19915;-71
2022/11/08 01:46:17;;;;;;;;;;;2.20;99.90;;;;;;5054780;28;19916;-71
2022/11/08 01:48:56;;;;;;;;;;;2.20;99.90;;;;;;5054426;28;20062;-71
2022/11/08 01:51:25;;;;;;;;;;;2.20;99.90;;;;;;5054048;28;19916;-71
2022/11/08 01:53:51;;;;;;;;;;;2.20;99.90;;;;;;5053984;28;20357;-71
2022/11/08 01:56:18;;;;;;;;;;;2.20;99.90;;;;;;5053467;28;19912;-71
2022/11/08 01:58:45;;;;;;;;;;;2.20;99.90;;;;;;5053723;28;19909;-71
2022/11/08 02:01:11;;;;;;;;;;;2.10;99.90;;;;;;5053919;28;19996;-70
2022/11/08 02:03:38;;;;;;;;;;;2.10;99.90;;;;;;5052200;28;19913;-70
2022/11/08 02:06:04;;;;;;;;;;;2.10;99.90;;;;;;5053648;28;19909;-71
2022/11/08 02:08:40;;;;;;;;;;;2.10;99.90;;;;;;5053614;28;19955;-70
2022/11/08 02:11:07;;;;;;;;;;;2.10;99.90;;;;;;5053468;28;20369;-70
2022/11/08 02:13:33;;;;;;;;;;;2.10;99.90;;;;;;5053320;28;20003;-69
2022/11/08 02:15:59;;;;;;;;;;;2.00;99.90;;;;;;5053393;28;19919;-70
2022/11/08 02:18:28;;;;;;;;;;;2.10;99.90;;;;;;5053443;28;20007;-71
2022/11/08 02:20:59;;;;;;;;;;;2.00;99.90;;;;;;5053375;28;19978;-70
2022/11/08 02:23:30;;;;;;;;;;;2.00;99.90;;;;;;5052634;28;19933;-71
2022/11/08 02:25:55;;;;;;;;;;;2.00;99.90;;;;;;5046941;28;20281;-71
2022/11/08 02:28:21;;;;;;;;;;;2.00;99.90;;;;;;5046825;28;19917;-71
2022/11/08 02:30:46;;;;;;;;;;;2.00;99.90;;;;;;5053358;28;19913;-71
2022/11/08 02:33:17;;;;;;;;;;;1.90;99.90;;;;;;5053265;28;19927;-71
2022/11/08 02:35:51;;;;;;;;;;;1.90;99.90;;;;;;5052739;28;19913;-70
2022/11/08 02:38:17;;;;;;;;;;;1.80;99.90;;;;;;5052859;28;19916;-71
2022/11/08 02:40:50;;;;;;;;;;;1.70;99.90;;;;;;5052698;28;20288;-71
2022/11/08 02:43:16;;;;;;;;;;;1.70;99.90;;;;;;5052679;28;20361;-71
2022/11/08 02:45:41;;;;;;;;;;;1.70;99.90;;;;;;5052843;28;19909;-70
2022/11/08 02:48:07;;;;;;;;;;;1.70;99.90;;;;;;5053619;28;19915;-70
2022/11/08 02:50:32;;;;;;;;;;;1.70;99.90;;;;;;5053267;28;19913;-71
2022/11/08 02:52:58;;;;;;;;;;;1.70;99.90;;;;;;5053466;28;19919;-70
2022/11/08 02:55:23;;;;;;;;;;;1.70;99.90;;;;;;5053196;28;19916;-70
2022/11/08 02:57:49;;;;;;;;;;;1.70;99.90;;;;;;5035786;28;19920;-70
2022/11/08 03:00:15;;;;;;;;;;;1.70;99.90;;;;;;5053282;28;19967;-70
2022/11/08 03:02:40;;;;;;;;;;;1.70;99.90;;;;;;5053104;28;19920;-70
2022/11/08 03:05:06;;;;;;;;;;;1.70;99.90;;;;;;5053158;28;19963;-70
2022/11/08 03:07:31;;;;;;;;;;;1.70;99.90;;;;;;5053131;28;19979;-70
2022/11/08 03:09:57;;;;;;;;;;;1.70;99.90;;;;;;5053473;28;19920;-70
2022/11/08 03:12:22;;;;;;;;;;;1.70;99.90;;;;;;5053331;28;19916;-70
2022/11/08 03:14:48;;;;;;;;;;;1.60;99.90;;;;;;5035257;28;19992;-70
2022/11/08 03:17:13;;;;;;;;;;;1.60;99.90;;;;;;5052176;28;20001;-70
2022/11/08 03:19:39;;;;;;;;;;;1.60;99.90;;;;;;5052907;28;19956;-70
2022/11/08 03:22:04;;;;;;;;;;;1.60;99.90;;;;;;5053298;28;19917;-70
2022/11/08 03:24:30;;;;;;;;;;;1.60;99.90;;;;;;5052491;28;19920;-71
2022/11/08 03:26:55;;;;;;;;;;;1.60;99.90;;;;;;5053432;28;19909;-71
2022/11/08 03:29:21;;;;;;;;;;;1.50;99.90;;;;;;5052998;28;19947;-71
2022/11/08 03:31:46;;;;;;;;;;;1.50;99.90;;;;;;5052964;28;20012;-71
2022/11/08 03:34:12;;;;;;;;;;;1.50;99.90;;;;;;5052895;28;19936;-70
2022/11/08 03:36:38;;;;;;;;;;;1.50;99.90;;;;;;5056830;28;20320;-71
2022/11/08 03:39:03;;;;;;;;;;;1.50;99.90;;;;;;5056621;28;19959;-71
2022/11/08 03:41:29;;;;;;;;;;;1.50;99.90;;;;;;5056775;28;19917;-71
2022/11/08 03:43:54;;;;;;;;;;;1.40;99.90;;;;;;5056464;28;19940;-71
2022/11/08 03:46:20;;;;;;;;;;;1.40;99.90;;;;;;5056466;28;19916;-71
2022/11/08 03:48:45;;;;;;;;;;;1.40;99.90;;;;;;5056374;28;19983;-71
2022/11/08 03:51:11;;;;;;;;;;;1.40;99.90;;;;;;5056638;28;19916;-70
2022/11/08 03:53:36;;;;;;;;;;;1.40;99.90;;;;;;5056233;28;19920;-71
2022/11/08 03:56:02;;;;;;;;;;;1.30;99.90;;;;;;5057063;28;19917;-71
2022/11/08 03:58:27;;;;;;;;;;;1.30;99.90;;;;;;5056761;28;19966;-71
2022/11/08 04:00:53;;;;;;;;;;;1.30;99.90;;;;;;5056439;28;20285;-71
2022/11/08 04:03:19;;;;;;;;;;;1.30;99.90;;;;;;5056110;28;20009;-71
2022/11/08 04:05:44;;;;;;;;;;;1.30;99.90;;;;;;5038431;28;19980;-71
2022/11/08 04:08:10;;;;;;;;;;;1.30;99.90;;;;;;5056085;28;19924;-71
2022/11/08 04:10:35;;;;;;;;;;;1.30;99.90;;;;;;5055976;28;19913;-71
2022/11/08 04:15:46;;;;;;;;;;;1.30;99.90;;;;;;5056860;28;20300;-71
2022/11/08 04:23:42;;;;;;;;;;;1.20;99.90;;;;;;5055811;28;19916;-72
2022/11/08 04:26:10;;;;;;;;;;;1.20;99.90;;;;;;5055851;28;19912;-72
2022/11/08 04:28:37;;;;;;;;;;;1.20;99.90;;;;;;5037795;28;19916;-71
2022/11/08 04:31:04;;;;;;;;;;;1.20;99.90;;;;;;5036553;28;19936;-71
2022/11/08 04:33:30;;;;;;;;;;;1.20;99.90;;;;;;5037417;28;19909;-71
2022/11/08 04:36:00;;;;;;;;;;;1.10;99.90;;;;;;5055301;28;19927;-72
2022/11/08 04:38:26;;;;;;;;;;;1.10;99.90;;;;;;5054654;28;20292;-71
2022/11/08 04:40:51;;;;;;;;;;;1.00;99.90;;;;;;5055221;28;19919;-71
2022/11/08 04:43:17;;;;;;;;;;;1.00;99.90;;;;;;5055141;28;19913;-71
2022/11/08 04:45:43;;;;;;;;;;;1.00;99.90;;;;;;5054827;28;19917;-71
2022/11/08 04:48:08;;;;;;;;;;;1.00;99.90;;;;;;5054620;28;19916;-71
2022/11/08 04:50:35;;;;;;;;;;;1.10;99.90;;;;;;5055211;28;19948;-71
2022/11/08 04:53:00;;;;;;;;;;;1.10;99.90;;;;;;5054265;28;19939;-71
2022/11/08 04:55:26;;;;;;;;;;;1.10;99.90;;;;;;5054907;28;19916;-71
2022/11/08 04:57:55;;;;;;;;;;;1.10;99.90;;;;;;5054910;28;19966;-71
2022/11/08 05:00:21;;;;;;;;;;;1.10;99.90;;;;;;5055000;28;19917;-71
2022/11/08 05:02:46;;;;;;;;;;;1.10;99.90;;;;;;5055396;28;19904;-71
2022/11/08 05:05:12;;;;;;;;;;;1.10;99.90;;;;;;5054822;28;19920;-71
2022/11/08 05:07:37;;;;;;;;;;;1.10;99.90;;;;;;5054554;28;19913;-71
2022/11/08 05:10:03;;;;;;;;;;;1.10;99.90;;;;;;5036807;28;19940;-71
2022/11/08 05:12:29;;;;;;;;;;;1.10;99.90;;;;;;5053916;28;20385;-70
2022/11/08 05:14:54;;;;;;;;;;;1.10;99.90;;;;;;5054147;28;20381;-71
2022/11/08 05:17:20;;;;;;;;;;;1.10;99.90;;;;;;5053979;28;20441;-71
2022/11/08 05:25:13;;;;;;;;;;;1.00;99.90;;;;;;5054934;28;19916;-71
2022/11/08 05:27:39;;;;;;;;;;;1.00;99.90;;;;;;5054762;28;19912;-72
2022/11/08 05:30:05;;;;;;;;;;;0.90;99.90;;;;;;5054482;28;19913;-71
2022/11/08 05:32:30;;;;;;;;;;;0.90;99.90;;;;;;5054580;28;19917;-71
2022/11/08 05:34:56;;;;;;;;;;;0.90;99.90;;;;;;5054481;28;20274;-71
2022/11/08 05:37:21;;;;;;;;;;;0.80;99.90;;;;;;5054623;28;19995;-71
2022/11/08 05:39:47;;;;;;;;;;;0.80;99.90;;;;;;5037107;28;20010;-71
2022/11/08 05:42:12;;;;;;;;;;;0.80;99.90;;;;;;5054859;28;19939;-71
2022/11/08 05:44:38;;;;;;;;;;;0.70;99.90;;;;;;5054537;28;19938;-71
2022/11/08 05:47:04;;;;;;;;;;;0.70;99.90;;;;;;5054117;28;19960;-71
2022/11/08 05:49:29;;;;;;;;;;;0.70;99.90;;;;;;5054059;28;20015;-71
2022/11/08 05:51:55;;;;;;;;;;;0.70;99.90;;;;;;5053704;28;19913;-71
2022/11/08 05:54:20;;;;;;;;;;;0.70;99.90;;;;;;5036086;28;19916;-71
2022/11/08 05:56:46;;;;;;;;;;;0.70;99.90;;;;;;5054277;28;19924;-71
2022/11/08 05:59:11;;;;;;;;;;;0.70;99.90;;;;;;5035217;28;19913;-71
2022/11/08 06:01:37;;;;;;;;;;;0.70;99.90;;;;;;5054214;28;19913;-71
2022/11/08 06:04:02;;;;;;;;;;;0.70;99.90;;;;;;5054100;28;19963;-71
2022/11/08 06:06:28;;;;;;;;;;;0.70;99.90;;;;;;5053773;28;19996;-71
2022/11/08 06:08:53;;;;;;;;;;;0.60;99.90;;;;;;5053794;28;19919;-71
2022/11/08 06:11:21;;;;;;;;;;;0.70;99.90;;;;;;5053792;28;20327;-70
2022/11/08 06:13:46;;;;;;;;;;;0.60;99.90;;;;;;5053662;28;19924;-71
2022/11/08 06:16:12;;;;;;;;;;;0.60;99.90;;;;;;5054026;28;19912;-71
2022/11/08 06:18:38;;;;;;;;;;;0.60;99.90;;;;;;5053656;28;19954;-71
2022/11/08 06:21:05;;;;;;;;;;;0.60;99.90;;;;;;5053951;28;19952;-72
2022/11/08 06:23:31;;;;;;;;;;;0.60;99.90;;;;;;5035480;28;19943;-70
2022/11/08 06:25:57;;;;;;;;;;;0.50;99.90;;;;;;5051481;28;19913;-70
2022/11/08 06:28:23;;;;;;;;;;;0.60;99.90;;;;;;5051523;28;20435;-71
2022/11/08 06:30:48;;;;;;;;;;;0.60;99.90;;;;;;5051574;28;19952;-71
2022/11/08 06:33:14;;;;;;;;;;;0.60;99.90;;;;;;5052771;28;19920;-71
2022/11/08 06:35:39;;;;;;;;;;;0.60;99.90;;;;;;5052401;28;19909;-71
2022/11/08 06:38:05;;;;;;;;;;;0.60;99.90;;;;;;5052488;28;19916;-70
2022/11/08 06:40:31;;;;;;;;;;;0.60;99.90;;;;;;5052572;28;19959;-70
2022/11/08 06:42:57;;;;;;;;;;;0.60;99.90;;;;;;5053304;28;19920;-70
2022/11/08 06:45:23;;;;;;;;;;;0.60;99.90;;;;;;5053911;28;19913;-70
2022/11/08 06:47:49;;;;;;;;;;;0.60;99.90;;;;;;5053376;28;19913;-71
2022/11/08 06:50:14;;;;;;;;;;;0.60;99.90;;;;;;5053505;28;19909;-71
2022/11/08 06:52:40;;;;;;;;;;;0.60;99.90;;;;;;5053608;28;19917;-71
2022/11/08 06:55:06;;;;;;;;;;;0.70;99.90;;;;;;5053313;28;19948;-70
2022/11/08 06:57:32;;;;;;;;;;;0.70;99.90;;;;;;5053408;28;19913;-71
2022/11/08 06:59:57;;;;;;;;;;;0.80;99.90;;;;;;5053240;28;20336;-71
2022/11/08 07:02:23;;;;;;;;;;;0.80;99.90;;;;;;5034956;28;19913;-71
2022/11/08 07:04:48;;;;;;;;;;;0.80;99.90;;;;;;5052996;28;20013;-71
2022/11/08 07:07:14;;;;;;;;;;;0.80;99.90;;;;;;5053503;28;19962;-71
2022/11/08 07:09:40;;;;;;;;;;;0.80;99.90;;;;;;5054016;28;19913;-70
2022/11/08 07:12:05;;;;;;;;;;;0.80;99.90;;;;;;5057314;28;19971;-71
2022/11/08 07:14:31;;;;;;;;;;;0.80;99.90;;;;;;5057121;28;19978;-71
2022/11/08 07:16:56;;;;;;;;;;;0.90;99.90;;;;;;5057184;28;19912;-71
2022/11/08 07:19:22;;;;;;;;;;;0.90;99.90;;;;;;5057022;28;20016;-71
2022/11/08 07:21:47;;;;;;;;;;;0.90;99.90;;;;;;5057018;28;20344;-71
2022/11/08 07:24:13;;;;;;;;;;;1.00;99.90;;;;;;5057163;28;20381;-71
2022/11/08 07:26:38;;;;;;;;;;;1.00;99.90;;;;;;5056748;28;19912;-71
2022/11/08 07:29:04;;;;;;;;;;;1.00;99.90;;;;;;5056780;28;19935;-71
2022/11/08 07:31:29;;;;;;;;;;;1.10;99.90;;;;;;5056834;28;19930;-71
2022/11/08 07:33:55;;;;;;;;;;;1.10;99.90;;;;;;5056767;28;20300;-71
2022/11/08 07:36:20;;;;;;;;;;;1.20;99.90;;;;;;5056682;28;19978;-71
2022/11/08 07:38:46;;;;;;;;;;;1.20;99.90;;;;;;5056743;28;19919;-70
2022/11/08 07:41:14;;;;;;;;;;;1.30;99.90;;;;;;5057076;28;19912;-71
2022/11/08 07:43:40;;;;;;;;;;;1.40;99.90;;;;;;5056784;28;19924;-70
2022/11/08 07:46:05;;;;;;;;;;;1.40;99.90;;;;;;5056743;28;19984;-71
2022/11/08 07:48:31;;;;;;;;;;;1.50;99.90;;;;;;5056720;28;19913;-71
2022/11/08 07:50:57;;;;;;;;;;;1.60;99.90;;;;;;5038606;28;19963;-71
2022/11/08 07:53:22;;;;;;;;;;;1.60;99.90;;;;;;5056458;28;19908;-71
2022/11/08 07:55:48;;;;;;;;;;;1.70;99.90;;;;;;5056422;28;19949;-71
2022/11/08 07:58:14;;;;;;;;;;;1.80;99.90;;;;;;5056349;28;19913;-70
2022/11/08 08:00:40;;;;;;;;;;;1.80;99.90;;;;;;5056212;28;20357;-71
2022/11/08 08:03:06;;;;;;;;;;;2.00;99.90;;;;;;5056529;28;19913;-71
2022/11/08 08:05:33;;;;;;;;;;;2.00;99.90;;;;;;5056351;28;20388;-71
2022/11/08 08:07:59;;;;;;;;;;;2.10;99.90;;;;;;5056127;28;20285;-71
2022/11/08 08:10:26;;;;;;;;;;;2.20;99.90;;;;;;5056042;28;19909;-71
2022/11/08 08:12:51;;;;;;;;;;;2.30;99.90;;;;;;5055866;28;19961;-71
2022/11/08 08:15:17;;;;;;;;;;;2.40;99.90;;;;;;5056465;28;20004;-71
2022/11/08 08:17:42;;;;;;;;;;;2.50;99.90;;;;;;5056171;28;20023;-72
2022/11/08 08:20:08;;;;;;;;;;;2.60;99.90;;;;;;5055946;28;19913;-71
2022/11/08 08:22:34;;;;;;;;;;;2.60;99.90;;;;;;5055227;28;19908;-72
2022/11/08 08:24:59;;;;;;;;;;;2.70;99.90;;;;;;5055727;28;20393;-72
2022/11/08 08:27:25;;;;;;;;;;;2.80;99.90;;;;;;5055636;28;19963;-72
2022/11/08 08:29:50;;;;;;;;;;;3.00;99.90;;;;;;5055978;28;19917;-73
2022/11/08 08:32:16;;;;;;;;;;;3.00;99.90;;;;;;5055752;28;19913;-72
2022/11/08 08:34:41;;;;;;;;;;;3.20;99.90;;;;;;5055887;28;19913;-72
2022/11/08 08:37:07;;;;;;;;;;;3.30;99.90;;;;;;5055582;28;20007;-72
2022/11/08 08:39:33;;;;;;;;;;;3.40;99.90;;;;;;5055526;28;19920;-73
2022/11/08 08:41:58;;;;;;;;;;;3.50;99.90;;;;;;5056272;28;19921;-73
2022/11/08 08:44:24;;;;;;;;;;;3.60;99.90;;;;;;5055397;28;19913;-73
2022/11/08 08:46:49;;;;;;;;;;;3.60;99.90;;;;;;5055691;28;19923;-74
2022/11/08 08:49:15;;;;;;;;;;;3.80;99.90;;;;;;5055327;28;19913;-74
2022/11/08 08:51:40;;;;;;;;;;;3.90;99.90;;;;;;5055270;28;19923;-74
2022/11/08 08:54:06;;;;;;;;;;;3.90;99.90;;;;;;5020812;28;19913;-73
2022/11/08 08:56:31;;;;;;;;;;;4.10;99.90;;;;;;5055243;28;19968;-73
2022/11/08 08:58:57;;;;;;;;;;;4.10;99.90;;;;;;5055120;28;19913;-73
2022/11/08 09:01:22;;;;;;;;;;;4.20;99.90;;;;;;5055051;28;19913;-74
2022/11/08 09:03:48;;;;;;;;;;;4.30;99.90;;;;;;5055069;28;19913;-73
2022/11/08 09:06:13;;;;;;;;;;;4.40;99.90;;;;;;5054921;28;19916;-74
2022/11/08 09:08:39;;;;;;;;;;;4.50;99.90;;;;;;5054942;28;19913;-74
2022/11/08 09:11:04;;;;;;;;;;;4.60;99.90;;;;;;5055172;28;20353;-73
2022/11/08 09:13:31;;;;;;;;;;;4.80;99.90;;;;;;5055032;28;20479;-73
2022/11/08 09:15:57;;;;;;;;;;;4.90;99.90;;;;;;5054958;28;20010;-74
2022/11/08 09:18:23;;;;;;;;;;;5.00;99.90;;;;;;5055276;28;20369;-74
2022/11/08 09:20:48;;;;;;;;;;;5.00;99.90;;;;;;5054994;28;19915;-74
2022/11/08 09:23:15;;;;;;;;;;;5.10;99.90;;;;;;5054539;28;19948;-73
2022/11/08 09:25:41;;;;;;;;;;;5.10;99.90;;;;;;5036678;28;19921;-74
2022/11/08 09:28:06;;;;;;;;;;;5.20;99.90;;;;;;5054589;28;19913;-74
2022/11/08 09:30:32;;;;;;;;;;;5.20;99.90;;;;;;5036700;28;19908;-74
2022/11/08 09:32:57;;;;;;;;;;;5.30;99.90;;;;;;5036405;28;20315;-73
2022/11/08 09:35:23;;;;;;;;;;;5.40;99.90;;;;;;5054739;28;19912;-74
2022/11/08 09:37:51;;;;;;;;;;;5.50;99.90;;;;;;5055030;28;19913;-74
2022/11/08 09:40:18;;;;;;;;;;;5.60;99.90;;;;;;5054567;28;19962;-73
2022/11/08 09:42:50;;;;;;;;;;;5.60;99.90;;;;;;5054188;28;19909;-74
2022/11/08 09:45:24;;;;;;;;;;;5.70;99.90;;;;;;5054827;28;20004;-74
2022/11/08 09:47:54;;;;;;;;;;;5.80;99.90;;;;;;5054583;28;20361;-73
2022/11/08 09:50:23;;;;;;;;;;;5.90;99.90;;;;;;5054132;28;19908;-73
2022/11/08 09:52:53;;;;;;;;;;;6.00;99.90;;;;;;5054048;28;19909;-73
2022/11/08 09:55:23;;;;;;;;;;;6.20;99.90;;;;;;5054631;28;19913;-74
2022/11/08 09:57:54;;;;;;;;;;;6.30;99.90;;;;;;5036189;28;19909;-74
2022/11/08 10:00:20;;;;;;;;;;;6.50;99.90;;;;;;5054017;28;19966;-74
2022/11/08 10:02:46;;;;;;;;;;;6.70;99.90;;;;;;5053856;28;20273;-73
2022/11/08 10:05:14;;;;;;;;;;;6.80;99.90;;;;;;5053965;28;19944;-74
2022/11/08 10:07:49;;;;;;;;;;;7.00;99.90;;;;;;5053782;28;19920;-74
2022/11/08 10:10:24;;;;;;;;;;;7.10;99.90;;;;;;5053784;28;20369;-74
2022/11/08 10:12:49;;;;;;;;;;;7.20;99.90;;;;;;5053701;28;20015;-73
2022/11/08 10:15:33;;;;;;;;;;;7.40;99.90;;;;;;5054043;28;20355;-74
2022/11/08 10:18:22;;;;;;;;;;;7.50;99.90;;;;;;5054253;28;20369;-73
2022/11/08 10:20:57;;;;;;;;;;;7.60;99.90;;;;;;5053759;28;20011;-73
2022/11/08 10:23:25;;;;;;;;;;;7.60;99.90;;;;;;5053616;28;19908;-74
2022/11/08 10:25:53;;;;;;;;;;;7.80;99.90;;;;;;5053571;28;19926;-74
2022/11/08 10:28:21;;;;;;;;;;;7.80;99.90;;;;;;5054128;28;19909;-74
2022/11/08 10:30:48;;;;;;;;;;;7.90;99.90;;;;;;5053839;28;19970;-73
2022/11/08 10:33:20;;;;;;;;;;;8.00;99.90;;;;;;5054004;28;19912;-74
2022/11/08 10:35:47;;;;;;;;;;;8.00;99.90;;;;;;5053483;28;19909;-74
2022/11/08 10:38:16;;;;;;;;;;;8.10;99.90;;;;;;5053422;28;19909;-74
2022/11/08 10:40:47;;;;;;;;;;;8.20;99.90;;;;;;5053468;28;19908;-74
2022/11/08 10:43:39;;;;;;;;;;;8.30;99.90;;;;;;5053390;28;19916;-74
2022/11/08 10:46:10;;;;;;;;;;;8.40;99.90;;;;;;5056310;28;19913;-74
2022/11/08 10:48:38;;;;;;;;;;;8.50;99.90;;;;;;5060389;28;19918;-74
2022/11/08 10:51:04;;;;;;;;;;;8.60;99.90;;;;;;5060283;28;19952;-74
2022/11/08 10:53:30;;;;;;;;;;;8.70;99.90;;;;;;5060207;28;20013;-74
2022/11/08 10:56:00;;;;;;;;;;;8.80;99.90;;;;;;5060304;28;20281;-73
2022/11/08 10:58:27;;;;;;;;;;;8.90;99.90;;;;;;5059978;28;19909;-73
2022/11/08 11:01:19;;;;;;;;;;;9.00;99.90;;;;;;5059876;28;19913;-73
2022/11/08 11:03:45;;;;;;;;;;;9.10;99.90;;;;;;5057439;28;19909;-72
2022/11/08 11:06:22;;;;;;;;;;;9.20;99.90;;;;;;5059795;28;19974;-72
2022/11/08 11:08:55;;;;;;;;;;;9.20;99.90;;;;;;5059857;28;19908;-72
2022/11/08 11:11:23;;;;;;;;;;;9.30;99.90;;;;;;5059836;28;20323;-72
2022/11/08 11:14:03;;;;;;;;;;;9.30;99.90;;;;;;5059743;28;20301;-72
2022/11/08 11:16:29;;;;;;;;;;;9.40;99.90;;;;;;5060079;28;19952;-72
2022/11/08 11:18:56;;;;;;;;;;;9.50;99.90;;;;;;5059795;28;19920;-72
2022/11/08 11:21:22;;;;;;;;;;;9.50;99.90;;;;;;5059843;28;19913;-72
2022/11/08 11:23:48;;;;;;;;;;;9.70;99.90;;;;;;5059673;28;19913;-72
2022/11/08 11:26:16;;;;;;;;;;;9.80;99.90;;;;;;5059696;28;20369;-72
2022/11/08 11:29:00;;;;;;;;;;;9.80;99.90;;;;;;5059749;28;20365;-72
2022/11/08 11:31:26;;;;;;;;;;;9.90;99.90;;;;;;5059692;28;19916;-72
2022/11/08 11:33:52;;;;;;;;;;;9.90;99.90;;;;;;5059692;28;19912;-72
2022/11/08 11:36:20;;;;;;;;;;;10.00;99.90;;;;;;5060271;28;19916;-72
2022/11/08 11:38:45;;;;;;;;;;;10.10;99.90;;;;;;5041916;28;19909;-72
2022/11/08 11:41:16;;;;;;;;;;;10.20;99.90;;;;;;5059767;28;19966;-72
2022/11/08 11:44:00;;;;;;;;;;;10.30;99.90;;;;;;5059581;28;20361;-72
2022/11/08 11:46:42;;;;;;;;;;;10.40;99.90;;;;;;5060123;28;19920;-72
2022/11/08 11:49:12;;;;;;;;;;;10.40;99.90;;;;;;5059639;28;19909;-72
2022/11/08 11:51:37;;;;;;;;;;;10.60;99.90;;;;;;5059608;28;20383;-71
2022/11/08 11:54:05;;;;;;;;;;;10.70;99.90;;;;;;5060139;28;19912;-71
2022/11/08 11:57:00;;;;;;;;;;;10.80;99.90;;;;;;5059052;28;19928;-71
2022/11/08 11:59:52;;;;;;;;;;;10.90;99.90;;;;;;5043148;28;19954;-71
2022/11/08 12:02:17;;;;;;;;;;;11.00;99.90;;;;;;5056111;28;19971;-71
2022/11/08 12:05:15;;;;;;;;;;;11.10;99.90;;;;;;5056146;28;19909;-71
2022/11/08 12:08:04;;;;;;;;;;;11.20;99.90;;;;;;5022437;28;19999;-71
2022/11/08 12:10:36;;;;;;;;;;;11.40;99.90;;;;;;5027616;28;19947;-71
2022/11/08 12:13:13;;;;;;;;;;;11.50;99.90;;;;;;5055870;28;19921;-71
2022/11/08 12:15:52;;;;;;;;;;;11.60;99.90;;;;;;5056242;28;19909;-71
2022/11/08 12:18:47;;;;;;;;;;;11.70;99.90;;;;;;5056024;28;19955;-71
2022/11/08 12:21:13;;;;;;;;;;;11.80;99.90;;;;;;5042513;28;20284;-71
2022/11/08 12:23:39;;;;;;;;;;;11.90;99.90;;;;;;5056219;28;19915;-71
2022/11/08 12:26:13;;;;;;;;;;;12.00;99.90;;;;;;5056534;28;20015;-71
2022/11/08 12:28:42;;;;;;;;;;;12.10;99.90;;;;;;5055766;28;19909;-71
2022/11/08 12:31:20;;;;;;;;;;;12.20;99.90;;;;;;5055724;28;20371;-71
2022/11/08 12:33:51;;;;;;;;;;;12.30;99.90;;;;;;5055592;28;19909;-71
2022/11/08 12:36:26;;;;;;;;;;;12.50;99.90;;;;;;5055563;28;19909;-71
2022/11/08 12:39:05;;;;;;;;;;;12.60;99.90;;;;;;5055769;28;19919;-71
2022/11/08 12:41:41;;;;;;;;;;;12.80;99.90;;;;;;5055823;28;19916;-71
2022/11/08 12:44:19;;;;;;;;;;;12.90;99.90;;;;;;5055551;28;19909;-71
2022/11/08 12:46:51;;;;;;;;;;;12.90;99.90;;;;;;5055304;28;19913;-71
2022/11/08 12:49:21;;;;;;;;;;;13.00;99.90;;;;;;5038106;28;19947;-71
2022/11/08 12:52:00;;;;;;;;;;;13.10;99.90;;;;;;5055293;28;19996;-71
2022/11/08 12:54:26;;;;;;;;;;;13.10;99.90;;;;;;5054158;28;19917;-71
2022/11/08 12:57:30;;;;;;;;;;;13.20;99.90;;;;;;5053956;28;20330;-71
2022/11/08 13:00:04;;;;;;;;;;;13.20;99.90;;;;;;5055710;28;19943;-71
2022/11/08 13:02:31;;;;;;;;;;;13.30;99.90;;;;;;5054687;28;19935;-71
2022/11/08 13:05:03;;;;;;;;;;;13.30;99.90;;;;;;5053663;28;20288;-71
2022/11/08 13:07:33;;;;;;;;;;;13.40;99.90;;;;;;5054710;28;20408;-71
2022/11/08 13:10:20;;;;;;;;;;;13.50;99.90;;;;;;5054884;28;20015;-71
2022/11/08 13:12:58;;;;;;;;;;;13.50;99.90;;;;;;5054880;28;19928;-71
2022/11/08 13:15:24;;;;;;;;;;;13.50;98.80;;;;;;5054913;28;19909;-71
2022/11/08 13:18:04;;;;;;;;;;;13.40;98.70;;;;;;5055192;28;20003;-71
2022/11/08 13:20:41;;;;;;;;;;;13.40;99.80;;;;;;5054776;28;20476;-71
2022/11/08 13:23:25;;;;;;;;;;;13.50;99.30;;;;;;5036766;28;19913;-71
2022/11/08 13:25:50;;;;;;;;;;;13.50;99.90;;;;;;5036763;28;19944;-71
2022/11/08 13:28:34;;;;;;;;;;;13.50;99.90;;;;;;5054586;28;20065;-71
2022/11/08 13:31:03;;;;;;;;;;;13.50;99.90;;;;;;5054633;28;19913;-71
2022/11/08 13:33:29;;;;;;;;;;;13.40;99.90;;;;;;5054523;28;20346;-71
2022/11/08 13:36:17;;;;;;;;;;;13.40;99.90;;;;;;5054485;28;20361;-71
2022/11/08 13:38:50;;;;;;;;;;;13.40;99.90;;;;;;5054097;28;20003;-72
2022/11/08 13:41:20;;;;;;;;;;;13.40;99.90;;;;;;5049338;28;19912;-71
2022/11/08 13:43:46;;;;;;;;;;;13.30;99.90;;;;;;5054225;28;19913;-71
2022/11/08 13:46:30;;;;;;;;;;;13.20;99.90;;;;;;5053903;28;19921;-71
2022/11/08 13:49:03;;;;;;;;;;;13.20;99.90;;;;;;5054273;28;20320;-71
2022/11/08 13:51:32;;;;;;;;;;;13.10;99.90;;;;;;5054150;28;19908;-70
2022/11/08 13:53:59;;;;;;;;;;;13.10;99.90;;;;;;5054054;28;19913;-71
2022/11/08 13:56:44;;;;;;;;;;;13.00;99.90;;;;;;5054847;28;19920;-71
2022/11/08 13:59:28;;;;;;;;;;;13.00;99.90;;;;;;5036278;28;19955;-71
2022/11/08 14:05:10;;;;;;;;;;;12.90;99.90;;;;;;5053952;28;20388;-71
2022/11/08 14:07:36;;;;;;;;;;;12.80;99.90;;;;;;5051990;28;20372;-71
2022/11/08 14:10:21;;;;;;;;;;;12.70;99.90;;;;;;5052516;28;19924;-71
2022/11/08 14:12:53;;;;;;;;;;;12.70;99.90;;;;;;5052730;28;19920;-71
2022/11/08 14:15:21;;;;;;;;;;;12.70;99.90;;;;;;5034273;28;19909;-71
2022/11/08 14:18:00;;;;;;;;;;;12.70;99.90;;;;;;5053301;28;19915;-71
2022/11/08 14:20:28;;;;;;;;;;;12.70;99.90;;;;;;5052844;28;19909;-71
2022/11/08 14:22:55;;;;;;;;;;;12.70;99.90;;;;;;5053635;28;19916;-71
2022/11/08 14:25:27;;;;;;;;;;;12.70;99.90;;;;;;5053650;28;20342;-71
2022/11/08 14:27:53;;;;;;;;;;;12.70;99.90;;;;;;5053790;28;20376;-71
2022/11/08 14:30:20;;;;;;;;;;;12.70;99.90;;;;;;5053560;28;19913;-71
2022/11/08 14:32:46;;;;;;;;;;;12.70;99.60;;;;;;5053768;28;19909;-71
2022/11/08 14:35:18;;;;;;;;;;;12.80;99.50;;;;;;5053771;28;20047;-71
2022/11/08 14:37:43;;;;;;;;;;;12.80;99.70;;;;;;5053808;28;19955;-71
2022/11/08 14:40:18;;;;;;;;;;;12.70;99.70;;;;;;5053497;28;20001;-71
2022/11/08 14:42:44;;;;;;;;;;;12.80;99.90;;;;;;5053274;28;19944;-71
2022/11/08 14:45:14;;;;;;;;;;;12.80;99.90;;;;;;5053414;28;19916;-71
2022/11/08 14:47:41;;;;;;;;;;;12.70;99.90;;;;;;5053638;28;19919;-71
2022/11/08 14:50:20;;;;;;;;;;;12.60;99.90;;;;;;5053329;28;19999;-71
2022/11/08 14:52:45;;;;;;;;;;;12.60;99.90;;;;;;5053680;28;20269;-71
2022/11/08 14:55:12;;;;;;;;;;;12.50;99.90;;;;;;5053223;28;19924;-71
2022/11/08 14:57:41;;;;;;;;;;;12.40;99.90;;;;;;5034240;28;19944;-71
2022/11/08 15:00:15;;;;;;;;;;;12.40;99.90;;;;;;5053196;28;20262;-71